createdAt,value
2019-01-21T00:00:56.512Z,95318.38
2019-01-21T00:03:25.884Z,95318.08
2019-01-21T00:05:55.276Z,95317.42
2019-01-21T00:08:24.641Z,95318.97
2019-01-21T00:10:53.985Z,95310.38
2019-01-21T00:13:23.336Z,95309.61
2019-01-21T00:15:52.701Z,95313.87
2019-01-21T00:18:22.077Z,95320.45
2019-01-21T00:20:51.400Z,95323.11
2019-01-21T00:23:20.750Z,95323.88
2019-01-21T00:25:50.197Z,95330.78
2019-01-21T00:28:20.152Z,95323.56
2019-01-21T00:30:49.737Z,95323.56
2019-01-21T00:33:19.241Z,95328.89
2019-01-21T00:35:48.576Z,95340.11
2019-01-21T00:38:18.027Z,95340.11
2019-01-21T00:40:47.386Z,95339.73
2019-01-21T00:43:16.746Z,95339.73
2019-01-21T00:45:46.088Z,95344.32
2019-01-21T00:48:15.404Z,95344.28
2019-01-21T00:50:44.713Z,95349.03
2019-01-21T00:53:14.081Z,95336.84
2019-01-21T00:55:43.431Z,95359.83
2019-01-21T00:58:12.771Z,95356.55
2019-01-21T01:00:42.088Z,95357.59
2019-01-21T01:03:11.535Z,95366.33
2019-01-21T01:05:40.902Z,95367.69
2019-01-21T01:08:10.244Z,95365.17
2019-01-21T01:10:39.757Z,95365.95
2019-01-21T01:13:09.073Z,95369.06
2019-01-21T01:15:38.412Z,95364.17
2019-01-21T01:18:08.040Z,95364.73
2019-01-21T01:20:37.386Z,95362.36
2019-01-21T01:23:06.768Z,95362.36
2019-01-21T01:25:36.097Z,95355.39
2019-01-21T01:28:05.539Z,95355.39
2019-01-21T01:30:34.951Z,95356.94
2019-01-21T01:33:04.636Z,95357.71
2019-01-21T01:35:34.095Z,95357.45
2019-01-21T01:38:03.444Z,95369.31
2019-01-21T01:40:32.915Z,95350.69
2019-01-21T01:43:02.259Z,95355.66
2019-01-21T01:45:31.628Z,95345.11
2019-01-21T01:48:02.590Z,95345.11
2019-01-21T01:50:32.438Z,95352.90
2019-01-21T01:53:02.076Z,95355.72
2019-01-21T01:55:32.594Z,95350.13
2019-01-21T01:58:03.772Z,95353.08
2019-01-21T02:00:33.444Z,95354.51
2019-01-21T02:03:02.756Z,95341.72
2019-01-21T02:05:32.119Z,95346.04
2019-01-21T02:08:01.629Z,95342.02
2019-01-21T02:10:31.226Z,95346.66
2019-01-21T02:13:00.599Z,95346.66
2019-01-21T02:15:29.927Z,95337.00
2019-01-21T02:17:59.238Z,95335.11
2019-01-21T02:20:28.570Z,95339.81
2019-01-21T02:23:03.263Z,95334.45
2019-01-21T02:25:53.254Z,95339.52
2019-01-21T02:28:38.762Z,95343.78
2019-01-21T02:31:53.009Z,95351.70
2019-01-21T02:34:47.630Z,95349.67
2019-01-21T02:38:12.900Z,95347.61
2019-01-21T02:41:25.348Z,95353.83
2019-01-21T02:44:53.738Z,95355.64
2019-01-21T02:47:44.547Z,95357.03
2019-01-21T02:51:01.093Z,95359.91
2019-01-21T02:54:19.953Z,95368.75
2019-01-21T02:57:20.574Z,95362.09
2019-01-21T03:00:30.072Z,95363.23
2019-01-21T03:03:41.188Z,95355.48
2019-01-21T03:06:41.195Z,95354.17
2019-01-21T03:09:51.332Z,95356.57
2019-01-21T03:12:46.407Z,95353.17
2019-01-21T03:15:51.472Z,95343.40
2019-01-21T03:18:53.128Z,95343.40
2019-01-21T03:22:15.498Z,95347.56
2019-01-21T03:25:20.903Z,95347.56
2019-01-21T03:28:37.270Z,95344.48
2019-01-21T03:31:37.803Z,95351.69
2019-01-21T03:34:55.747Z,95346.80
2019-01-21T03:37:58.616Z,95346.80
2019-01-21T03:40:54.605Z,95350.99
2019-01-21T03:43:49.931Z,95346.35
2019-01-21T03:46:58.965Z,95343.45
2019-01-21T03:50:05.397Z,95343.45
2019-01-21T03:53:36.737Z,95348.80
2019-01-21T03:56:14.826Z,95339.03
2019-01-21T03:59:23.390Z,95351.89
2019-01-21T04:02:33.833Z,95347.16
2019-01-21T04:05:29.178Z,95344.83
2019-01-21T04:08:28.517Z,95346.52
2019-01-21T04:11:28.353Z,95344.82
2019-01-21T04:14:33.874Z,95347.14
2019-01-21T04:17:38.752Z,95347.39
2019-01-21T04:20:29.390Z,95347.39
2019-01-21T04:23:46.213Z,95351.66
2019-01-21T04:27:14.759Z,95353.47
2019-01-21T04:30:15.213Z,95358.42
2019-01-21T04:33:13.538Z,95358.42
2019-01-21T04:35:59.759Z,95359.08
2019-01-21T04:38:59.457Z,95368.35
2019-01-21T04:41:42.811Z,95368.35
2019-01-21T04:44:57.651Z,95375.84
2019-01-21T04:48:10.664Z,95378.55
2019-01-21T04:51:26.897Z,95378.55
2019-01-21T04:54:56.582Z,95371.32
2019-01-21T04:58:02.036Z,95389.63
2019-01-21T05:01:20.103Z,95389.63
2019-01-21T05:04:29.345Z,95388.78
2019-01-21T05:07:44.304Z,95388.78
2019-01-21T05:10:44.143Z,95397.86
2019-01-21T05:13:46.746Z,95400.53
2019-01-21T05:16:40.559Z,95400.23
2019-01-21T05:19:59.138Z,95402.03
2019-01-21T05:22:45.924Z,95395.60
2019-01-21T05:25:42.339Z,95395.60
2019-01-21T05:28:55.160Z,95396.20
2019-01-21T05:31:51.646Z,95396.20
2019-01-21T05:34:34.109Z,95404.66
2019-01-21T05:37:48.940Z,95398.44
2019-01-21T05:41:08.296Z,95403.92
2019-01-21T05:44:21.692Z,95405.20
2019-01-21T05:47:46.469Z,95403.99
2019-01-21T05:50:56.393Z,95406.27
2019-01-21T05:53:47.862Z,95417.34
2019-01-21T05:57:00.269Z,95417.53
2019-01-21T06:00:11.144Z,95424.46
2019-01-21T06:03:36.741Z,95425.19
2019-01-21T06:06:53.202Z,95420.61
2019-01-21T06:10:18.554Z,95430.20
2019-01-21T06:13:34.963Z,95428.94
2019-01-21T06:16:26.858Z,95430.08
2019-01-21T06:19:23.479Z,95435.31
2019-01-21T06:22:23.904Z,95441.20
2019-01-21T06:25:13.675Z,95445.00
2019-01-21T06:28:29.888Z,95449.92
2019-01-21T06:31:40.340Z,95450.76
2019-01-21T06:34:42.400Z,95451.72
2019-01-21T06:37:41.363Z,95450.05
2019-01-21T06:41:06.993Z,95455.10
2019-01-21T06:44:22.759Z,95459.08
2019-01-21T06:47:36.275Z,95458.83
2019-01-21T06:50:35.452Z,95461.58
2019-01-21T06:53:45.568Z,95467.46
2019-01-21T06:56:51.457Z,95461.02
2019-01-21T07:00:16.996Z,95469.09
2019-01-21T07:03:06.968Z,95469.09
2019-01-21T07:06:12.129Z,95477.70
2019-01-21T07:09:06.443Z,95477.70
2019-01-21T07:12:00.829Z,95488.63
2019-01-21T07:15:01.975Z,95492.03
2019-01-21T07:18:12.880Z,95496.20
2019-01-21T07:21:21.082Z,95501.12
2019-01-21T07:24:37.618Z,95506.48
2019-01-21T07:27:42.146Z,95497.13
2019-01-21T07:30:38.864Z,95497.13
2019-01-21T07:33:41.563Z,95509.06
2019-01-21T07:36:45.464Z,95362.96
2019-01-21T07:39:50.718Z,95362.96
2019-01-21T07:43:07.049Z,95513.92
2019-01-21T07:45:57.912Z,95507.30
2019-01-21T07:49:00.980Z,95514.70
2019-01-21T07:52:05.854Z,95520.97
2019-01-21T07:55:25.352Z,95524.91
2019-01-21T07:58:21.366Z,95525.50
2019-01-21T08:01:17.341Z,95519.27
2019-01-21T08:04:21.573Z,95526.36
2019-01-21T08:07:05.629Z,95526.36
2019-01-21T08:10:24.796Z,95529.38
2019-01-21T08:13:15.020Z,95536.57
2019-01-21T08:16:22.468Z,95541.84
2019-01-21T08:19:29.991Z,95538.98
2019-01-21T08:22:36.170Z,95529.65
2019-01-21T08:25:40.998Z,95554.30
2019-01-21T08:28:49.313Z,95558.80
2019-01-21T08:31:27.475Z,95564.17
2019-01-21T08:34:30.232Z,95566.39
2019-01-21T08:37:31.327Z,95562.11
2019-01-21T08:40:27.640Z,95568.62
2019-01-21T08:43:30.346Z,95566.94
2019-01-21T08:46:37.933Z,95571.88
2019-01-21T08:49:39.304Z,95575.19
2019-01-21T08:53:04.221Z,95582.08
2019-01-21T08:56:32.586Z,95584.19
2019-01-21T08:59:27.203Z,95582.03
2019-01-21T09:02:31.698Z,95585.39
2019-01-21T09:05:32.497Z,95581.18
2019-01-21T09:09:09.986Z,95498.64
2019-01-21T09:12:17.217Z,95777.17
2019-01-21T09:15:38.310Z,95580.66
2019-01-21T09:18:47.069Z,95592.48
2019-01-21T09:22:01.792Z,95586.22
2019-01-21T09:25:18.279Z,95586.33
2019-01-21T09:28:17.037Z,95583.70
2019-01-21T09:31:20.845Z,95584.96
2019-01-21T09:34:22.185Z,95571.78
2019-01-21T09:37:41.681Z,95576.67
2019-01-21T09:40:49.976Z,95575.69
2019-01-21T09:44:00.220Z,95576.98
2019-01-21T09:46:48.575Z,95566.20
2019-01-21T09:49:16.133Z,95560.81
2019-01-21T09:51:55.426Z,95550.66
2019-01-21T09:54:25.130Z,95553.62
2019-01-21T09:56:57.171Z,95558.68
2019-01-21T09:59:26.609Z,95555.15
2019-01-21T10:01:58.417Z,95554.33
2019-01-21T10:04:34.975Z,95547.88
2019-01-21T10:07:39.117Z,95548.31
2019-01-21T10:10:43.528Z,95548.31
2019-01-21T10:13:45.496Z,95538.67
2019-01-21T10:16:36.704Z,95525.23
2019-01-21T10:19:30.597Z,95518.47
2019-01-21T10:22:31.529Z,95527.52
2019-01-21T10:25:41.110Z,95517.22
2019-01-21T10:28:43.790Z,95513.46
2019-01-21T10:31:59.418Z,95512.16
2019-01-21T10:35:04.585Z,95514.95
2019-01-21T10:38:19.568Z,95512.73
2019-01-21T10:41:30.349Z,95505.09
2019-01-21T10:44:43.723Z,95508.61
2019-01-21T10:47:28.307Z,95512.66
2019-01-21T10:50:21.409Z,95515.22
2019-01-21T10:53:12.619Z,95508.58
2019-01-21T10:56:08.772Z,95504.67
2019-01-21T10:58:48.298Z,95496.34
2019-01-21T11:02:10.627Z,95497.88
2019-01-21T11:05:31.456Z,95502.83
2019-01-21T11:08:33.860Z,95507.48
2019-01-21T11:11:53.936Z,95510.95
2019-01-21T11:15:15.508Z,95512.47
2019-01-21T11:17:59.380Z,95490.88
2019-01-21T11:21:12.396Z,95501.83
2019-01-21T11:24:37.581Z,95509.72
2019-01-21T11:27:36.840Z,95499.58
2019-01-21T11:31:03.306Z,95497.88
2019-01-21T11:33:49.235Z,95492.86
2019-01-21T11:37:05.711Z,95484.47
2019-01-21T11:40:21.545Z,95486.61
2019-01-21T11:43:29.289Z,95486.19
2019-01-21T11:46:19.360Z,95482.14
2019-01-21T11:49:25.537Z,95487.58
2019-01-21T11:52:24.290Z,95485.68
2019-01-21T11:55:50.032Z,95481.94
2019-01-21T11:58:55.903Z,95411.55
2019-01-21T12:02:06.030Z,95485.09
2019-01-21T12:05:28.186Z,95479.31
2019-01-21T12:08:30.298Z,95477.66
2019-01-21T12:11:37.700Z,95480.80
2019-01-21T12:14:56.895Z,95481.13
2019-01-21T12:17:36.875Z,95479.13
2019-01-21T12:20:34.476Z,95470.40
2019-01-21T12:23:20.795Z,95472.39
2019-01-21T12:25:57.746Z,95464.98
2019-01-21T12:28:53.585Z,95469.96
2019-01-21T12:31:50.641Z,95471.00
2019-01-21T12:34:56.752Z,95467.77
2019-01-21T12:38:22.231Z,95460.14
2019-01-21T12:41:21.753Z,95459.08
2019-01-21T12:44:53.465Z,95461.38
2019-01-21T12:47:54.330Z,95465.45
2019-01-21T12:51:10.876Z,95464.19
2019-01-21T12:54:20.912Z,95462.11
2019-01-21T12:57:17.826Z,95463.62
2019-01-21T13:00:22.980Z,95466.69
2019-01-21T13:03:18.141Z,95464.78
2019-01-21T13:06:13.219Z,95456.44
2019-01-21T13:09:10.120Z,95466.32
2019-01-21T13:12:02.375Z,95472.85
2019-01-21T13:15:40.118Z,95471.19
2019-01-21T13:19:08.438Z,95474.63
2019-01-21T13:22:09.554Z,95474.09
2019-01-21T13:25:22.304Z,95477.69
2019-01-21T13:28:18.057Z,95481.00
2019-01-21T13:31:27.889Z,95482.38
2019-01-21T13:34:17.754Z,95480.86
2019-01-21T13:37:27.231Z,95484.06
2019-01-21T13:40:17.557Z,95464.70
2019-01-21T13:43:09.954Z,95465.44
2019-01-21T13:46:21.144Z,95470.72
2019-01-21T13:49:11.650Z,95467.25
2019-01-21T13:52:17.096Z,95466.84
2019-01-21T13:55:26.855Z,95463.69
2019-01-21T13:58:36.941Z,95467.96
2019-01-21T14:01:30.690Z,95483.26
2019-01-21T14:04:53.615Z,95464.19
2019-01-21T14:07:51.675Z,95467.31
2019-01-21T14:11:13.692Z,95425.83
2019-01-21T14:14:20.196Z,95462.28
2019-01-21T14:17:36.435Z,95463.58
2019-01-21T14:20:21.965Z,95445.72
2019-01-21T14:23:05.931Z,95462.38
2019-01-21T14:26:15.943Z,95471.27
2019-01-21T14:29:07.171Z,95469.74
2019-01-21T14:32:13.778Z,95474.76
2019-01-21T14:35:11.890Z,95468.59
2019-01-21T14:38:20.784Z,95464.25
2019-01-21T14:41:33.999Z,95471.23
2019-01-21T14:44:35.050Z,95477.47
2019-01-21T14:48:09.882Z,95478.42
2019-01-21T14:51:23.530Z,95474.75
2019-01-21T14:54:37.232Z,95470.42
2019-01-21T14:57:48.670Z,95470.42
2019-01-21T15:00:44.944Z,95485.48
2019-01-21T15:03:29.107Z,95481.95
2019-01-21T15:06:37.146Z,95481.34
2019-01-21T15:09:40.699Z,95484.92
2019-01-21T15:12:43.130Z,95475.07
2019-01-21T15:15:33.766Z,95477.74
2019-01-21T15:18:21.333Z,95477.15
2019-01-21T15:21:31.160Z,95479.28
2019-01-21T15:24:36.145Z,95480.76
2019-01-21T15:27:50.994Z,95482.03
2019-01-21T15:30:59.951Z,95481.64
2019-01-21T15:33:40.802Z,95249.91
2019-01-21T15:36:33.995Z,95487.56
2019-01-21T15:39:33.951Z,95490.86
2019-01-21T15:42:52.442Z,95494.28
2019-01-21T15:46:05.711Z,95489.94
2019-01-21T15:48:55.815Z,95489.94
2019-01-21T15:51:53.224Z,95490.97
2019-01-21T15:55:00.647Z,95491.05
2019-01-21T15:58:01.070Z,95491.31
2019-01-21T16:00:57.221Z,95496.63
2019-01-21T16:03:38.363Z,95498.28
2019-01-21T16:06:38.377Z,95502.77
2019-01-21T16:09:59.761Z,95505.66
2019-01-21T16:13:03.001Z,95507.11
2019-01-21T16:16:21.360Z,95508.02
2019-01-21T16:19:03.800Z,95509.72
2019-01-21T16:22:06.586Z,95514.33
2019-01-21T16:25:09.530Z,95527.20
2019-01-21T16:28:21.822Z,95521.38
2019-01-21T16:31:15.426Z,95515.17
2019-01-21T16:34:15.274Z,95521.33
2019-01-21T16:37:10.800Z,95518.56
2019-01-21T16:40:23.939Z,95523.30
2019-01-21T16:42:53.326Z,95526.28
2019-01-21T16:45:22.770Z,95520.19
2019-01-21T16:47:52.098Z,95519.20
2019-01-21T16:50:21.434Z,95530.92
2019-01-21T16:52:50.897Z,95520.91
2019-01-21T16:55:20.928Z,95523.30
2019-01-21T16:57:50.337Z,95520.94
2019-01-21T17:00:19.716Z,95527.27
2019-01-21T17:02:49.078Z,95524.50
2019-01-21T17:05:18.704Z,95529.75
2019-01-21T17:07:48.061Z,95528.44
2019-01-21T17:10:17.460Z,95535.34
2019-01-21T17:12:46.803Z,95534.73
2019-01-21T17:15:16.343Z,95536.50
2019-01-21T17:17:45.739Z,95531.16
2019-01-21T17:20:18.371Z,95532.25
2019-01-21T17:22:49.249Z,95524.27
2019-01-21T17:25:18.948Z,95532.06
2019-01-21T17:27:48.395Z,95525.67
2019-01-21T17:30:17.888Z,95531.73
2019-01-21T17:32:47.267Z,95531.73
2019-01-21T17:35:16.623Z,95531.73
2019-01-21T17:37:46.018Z,95534.42
2019-01-21T17:40:28.099Z,95534.42
2019-01-21T17:42:58.089Z,95532.09
2019-01-21T17:45:27.451Z,95532.13
2019-01-21T17:47:56.830Z,95526.80
2019-01-21T17:50:28.191Z,95538.53
2019-01-21T17:53:00.246Z,95529.36
2019-01-21T17:55:29.676Z,95529.38
2019-01-21T17:57:59.038Z,95529.38
2019-01-21T18:00:28.493Z,95543.52
2019-01-21T18:02:58.042Z,95540.28
2019-01-21T18:05:27.466Z,95534.50
2019-01-21T18:07:56.839Z,95534.50
2019-01-21T18:10:26.220Z,95544.88
2019-01-21T18:12:55.830Z,95546.50
2019-01-21T18:15:25.441Z,95539.80
2019-01-21T18:17:54.821Z,95539.23
2019-01-21T18:20:25.603Z,95542.92
2019-01-21T18:22:55.657Z,95545.97
2019-01-21T18:25:25.126Z,95545.97
2019-01-21T18:27:54.546Z,95532.95
2019-01-21T18:30:26.694Z,95543.60
2019-01-21T18:32:56.234Z,95546.56
2019-01-21T18:35:25.968Z,95538.56
2019-01-21T18:37:55.404Z,95552.14
2019-01-21T18:40:24.847Z,95552.64
2019-01-21T18:42:54.172Z,95552.64
2019-01-21T18:45:28.280Z,95546.23
2019-01-21T18:47:57.678Z,95552.97
2019-01-21T18:50:27.639Z,95110.47
2019-01-21T18:52:57.022Z,95540.16
2019-01-21T18:55:26.574Z,95548.71
2019-01-21T18:57:57.443Z,95540.80
2019-01-21T19:00:27.828Z,95556.00
2019-01-21T19:02:57.446Z,95549.06
2019-01-21T19:05:27.271Z,95556.23
2019-01-21T19:07:56.627Z,95418.79
2019-01-21T19:10:25.993Z,95544.45
2019-01-21T19:12:55.393Z,95555.03
2019-01-21T19:15:27.488Z,95555.03
2019-01-21T19:17:56.900Z,95550.02
2019-01-21T19:20:26.596Z,95547.03
2019-01-21T19:22:55.946Z,95537.20
2019-01-21T19:25:27.067Z,95537.20
2019-01-21T19:27:56.500Z,95545.41
2019-01-21T19:30:27.420Z,95546.81
2019-01-21T19:32:58.407Z,95546.81
2019-01-21T19:35:33.480Z,95549.99
2019-01-21T19:38:02.835Z,95538.25
2019-01-21T19:40:32.299Z,95546.75
2019-01-21T19:43:01.691Z,95541.16
2019-01-21T19:45:31.086Z,95541.16
2019-01-21T19:48:01.419Z,95548.84
2019-01-21T19:50:31.520Z,95546.50
2019-01-21T19:53:02.191Z,95539.28
2019-01-21T19:55:42.901Z,95548.36
2019-01-21T19:58:13.134Z,95537.17
2019-01-21T20:00:43.514Z,95537.17
2019-01-21T20:03:12.929Z,95544.06
2019-01-21T20:05:42.905Z,95542.88
2019-01-21T20:08:13.478Z,95537.58
2019-01-21T20:10:42.870Z,95552.22
2019-01-21T20:13:12.277Z,95552.22
2019-01-21T20:15:41.654Z,95541.02
2019-01-21T20:18:12.286Z,95538.33
2019-01-21T20:20:45.853Z,95547.09
2019-01-21T20:23:15.240Z,95547.09
2019-01-21T20:25:45.070Z,95544.98
2019-01-21T20:28:14.559Z,95554.33
2019-01-21T20:30:45.895Z,95554.88
2019-01-21T20:33:15.291Z,95547.45
2019-01-21T20:35:44.714Z,95546.69
2019-01-21T20:38:15.983Z,95543.25
2019-01-21T20:40:50.386Z,95543.25
2019-01-21T20:43:19.823Z,95542.70
2019-01-21T20:45:49.330Z,95526.50
2019-01-21T20:48:18.882Z,95526.50
2019-01-21T20:50:50.949Z,95541.41
2019-01-21T20:53:20.423Z,95545.14
2019-01-21T20:55:50.001Z,95544.09
2019-01-21T20:58:19.553Z,95543.56
2019-01-21T21:00:49.250Z,95536.38
2019-01-21T21:03:18.879Z,95544.08
2019-01-21T21:05:48.216Z,95533.96
2019-01-21T21:08:18.880Z,95532.08
2019-01-21T21:10:48.446Z,95530.77
2019-01-21T21:13:18.024Z,95535.25
2019-01-21T21:15:47.815Z,95535.79
2019-01-21T21:18:17.680Z,95532.34
2019-01-21T21:20:47.028Z,95529.67
2019-01-21T21:23:16.341Z,95531.81
2019-01-21T21:25:46.052Z,95531.05
2019-01-21T21:28:15.607Z,95543.53
2019-01-21T21:30:45.103Z,95534.22
2019-01-21T21:33:14.492Z,95535.00
2019-01-21T21:35:43.788Z,95535.56
2019-01-21T21:38:13.183Z,95535.56
2019-01-21T21:40:42.497Z,95539.55
2019-01-21T21:43:11.900Z,95535.55
2019-01-21T21:45:41.270Z,95532.08
2019-01-21T21:48:10.623Z,95530.77
2019-01-21T21:50:39.984Z,95535.27
2019-01-21T21:53:09.329Z,95533.41
2019-01-21T21:55:38.813Z,95534.16
2019-01-21T21:58:08.462Z,95534.09
2019-01-21T22:00:37.956Z,95534.72
2019-01-21T22:03:07.440Z,95534.72
2019-01-21T22:05:36.866Z,95522.97
2019-01-21T22:08:09.133Z,95522.97
2019-01-21T22:10:38.506Z,95524.05
2019-01-21T22:13:07.855Z,95523.27
2019-01-21T22:15:37.410Z,95522.76
2019-01-21T22:18:06.824Z,95519.80
2019-01-21T22:20:36.219Z,95515.26
2019-01-21T22:23:05.779Z,95524.80
2019-01-21T22:25:35.124Z,95518.64
2019-01-21T22:28:04.499Z,95506.63
2019-01-21T22:30:33.858Z,95506.63
2019-01-21T22:33:03.172Z,95501.77
2019-01-21T22:35:32.888Z,95501.73
2019-01-21T22:38:02.242Z,95501.73
2019-01-21T22:40:31.623Z,95509.75
2019-01-21T22:43:00.976Z,95509.75
2019-01-21T22:45:30.326Z,95500.41
2019-01-21T22:47:59.934Z,95502.77
2019-01-21T22:50:29.331Z,95502.77
2019-01-21T22:52:58.684Z,95496.87
2019-01-21T22:55:28.043Z,95505.10
2019-01-21T22:57:57.362Z,95505.10
2019-01-21T23:00:44.593Z,95505.63
2019-01-21T23:03:14.570Z,95496.55
2019-01-21T23:05:43.928Z,95484.03
2019-01-21T23:08:13.316Z,95497.81
2019-01-21T23:10:42.683Z,95501.27
2019-01-21T23:13:12.016Z,95491.49
2019-01-21T23:15:41.418Z,95491.44
2019-01-21T23:18:10.851Z,95498.32
2019-01-21T23:20:40.150Z,95500.48
2019-01-21T23:23:09.760Z,95491.51
2019-01-21T23:25:39.172Z,95500.00
2019-01-21T23:28:08.520Z,95500.00
2019-01-21T23:30:37.870Z,95491.73
2019-01-21T23:33:07.232Z,95492.57
2019-01-21T23:35:36.862Z,95491.02
2019-01-21T23:38:06.180Z,95491.30
2019-01-21T23:40:35.526Z,95495.06
2019-01-21T23:43:04.881Z,95493.73
2019-01-21T23:45:34.325Z,95493.27
2019-01-21T23:48:03.699Z,95491.67
2019-01-21T23:50:33.018Z,95496.48
2019-01-21T23:53:02.380Z,95488.00
2019-01-21T23:55:31.837Z,95486.72
2019-01-21T23:58:01.188Z,95490.50
